sensor_id;sensor_type;location;lat;lon;timestamp;P1;durP1;ratioP1;P2;durP2;ratioP2
67363;SDS011;54250;45.572;38.086;2023-01-13T00:01:43;0.20;;;0.20;;
67363;SDS011;54250;45.572;38.086;2023-01-13T00:04:10;0.10;;;0.10;;
67363;SDS011;54250;45.572;38.086;2023-01-13T00:06:36;1.60;;;0.57;;
67363;SDS011;54250;45.572;38.086;2023-01-13T00:09:02;0.95;;;0.85;;
67363;SDS011;54250;45.572;38.086;2023-01-13T00:11:28;0.20;;;0.20;;
67363;SDS011;54250;45.572;38.086;2023-01-13T00:13:54;0.10;;;0.10;;
67363;SDS011;54250;45.572;38.086;2023-01-13T00:16:20;6.88;;;1.30;;
67363;SDS011;54250;45.572;38.086;2023-01-13T00:18:46;1.23;;;0.70;;
67363;SDS011;54250;45.572;38.086;2023-01-13T00:23:42;0.93;;;0.57;;
67363;SDS011;54250;45.572;38.086;2023-01-13T00:26:10;0.57;;;0.55;;
67363;SDS011;54250;45.572;38.086;2023-01-13T00:28:38;0.20;;;0.20;;
67363;SDS011;54250;45.572;38.086;2023-01-13T00:31:05;0.00;;;0.00;;
67363;SDS011;54250;45.572;38.086;2023-01-13T00:33:35;0.32;;;0.32;;
67363;SDS011;54250;45.572;38.086;2023-01-13T00:36:03;0.77;;;0.77;;
67363;SDS011;54250;45.572;38.086;2023-01-13T00:38:31;2.90;;;1.80;;
67363;SDS011;54250;45.572;38.086;2023-01-13T00:41:01;0.00;;;0.00;;
67363;SDS011;54250;45.572;38.086;2023-01-13T00:43:30;2.05;;;0.47;;
67363;SDS011;54250;45.572;38.086;2023-01-13T00:45:57;0.10;;;0.10;;
67363;SDS011;54250;45.572;38.086;2023-01-13T00:48:24;1.90;;;1.17;;
67363;SDS011;54250;45.572;38.086;2023-01-13T00:50:56;8.32;;;0.52;;
67363;SDS011;54250;45.572;38.086;2023-01-13T00:53:44;0.20;;;0.20;;
67363;SDS011;54250;45.572;38.086;2023-01-13T00:56:13;0.70;;;0.45;;
67363;SDS011;54250;45.572;38.086;2023-01-13T00:58:42;0.13;;;0.13;;
67363;SDS011;54250;45.572;38.086;2023-01-13T01:01:09;1.23;;;0.35;;
67363;SDS011;54250;45.572;38.086;2023-01-13T01:03:38;0.32;;;0.32;;
67363;SDS011;54250;45.572;38.086;2023-01-13T01:06:14;0.88;;;0.85;;
67363;SDS011;54250;45.572;38.086;2023-01-13T01:08:42;1.35;;;0.40;;
67363;SDS011;54250;45.572;38.086;2023-01-13T01:11:09;0.95;;;0.10;;
67363;SDS011;54250;45.572;38.086;2023-01-13T01:13:38;0.00;;;0.00;;
67363;SDS011;54250;45.572;38.086;2023-01-13T01:16:04;0.10;;;0.10;;
67363;SDS011;54250;45.572;38.086;2023-01-13T01:18:36;2.47;;;1.45;;
67363;SDS011;54250;45.572;38.086;2023-01-13T01:21:04;0.90;;;0.20;;
67363;SDS011;54250;45.572;38.086;2023-01-13T01:23:31;0.20;;;0.10;;
67363;SDS011;54250;45.572;38.086;2023-01-13T01:26:06;1.25;;;0.88;;
67363;SDS011;54250;45.572;38.086;2023-01-13T01:28:35;0.00;;;0.00;;
67363;SDS011;54250;45.572;38.086;2023-01-13T01:31:05;0.00;;;0.00;;
67363;SDS011;54250;45.572;38.086;2023-01-13T01:33:35;0.32;;;0.32;;
67363;SDS011;54250;45.572;38.086;2023-01-13T01:36:02;0.10;;;0.10;;
67363;SDS011;54250;45.572;38.086;2023-01-13T01:38:28;3.47;;;1.38;;
67363;SDS011;54250;45.572;38.086;2023-01-13T01:40:54;0.40;;;0.40;;
67363;SDS011;54250;45.572;38.086;2023-01-13T01:43:22;3.50;;;1.75;;
67363;SDS011;54250;45.572;38.086;2023-01-13T01:46:44;0.20;;;0.20;;
67363;SDS011;54250;45.572;38.086;2023-01-13T01:51:38;0.00;;;0.00;;
67363;SDS011;54250;45.572;38.086;2023-01-13T01:54:10;5.63;;;1.02;;
67363;SDS011;54250;45.572;38.086;2023-01-13T01:56:40;0.88;;;0.47;;
67363;SDS011;54250;45.572;38.086;2023-01-13T01:59:07;2.05;;;1.13;;
67363;SDS011;54250;45.572;38.086;2023-01-13T02:01:34;0.30;;;0.30;;
67363;SDS011;54250;45.572;38.086;2023-01-13T02:04:08;0.08;;;0.08;;
67363;SDS011;54250;45.572;38.086;2023-01-13T02:06:44;0.43;;;0.20;;
67363;SDS011;54250;45.572;38.086;2023-01-13T02:09:12;0.00;;;0.00;;
67363;SDS011;54250;45.572;38.086;2023-01-13T02:11:38;1.45;;;0.40;;
67363;SDS011;54250;45.572;38.086;2023-01-13T02:14:24;0.13;;;0.13;;
67363;SDS011;54250;45.572;38.086;2023-01-13T02:25:18;0.47;;;0.47;;
67363;SDS011;54250;45.572;38.086;2023-01-13T02:30:59;0.20;;;0.20;;
67363;SDS011;54250;45.572;38.086;2023-01-13T02:34:05;0.95;;;0.25;;
67363;SDS011;54250;45.572;38.086;2023-01-13T02:36:52;0.20;;;0.20;;
67363;SDS011;54250;45.572;38.086;2023-01-13T02:39:33;0.10;;;0.10;;
67363;SDS011;54250;45.572;38.086;2023-01-13T02:42:21;0.10;;;0.10;;
67363;SDS011;54250;45.572;38.086;2023-01-13T02:45:23;12.52;;;1.50;;
67363;SDS011;54250;45.572;38.086;2023-01-13T02:47:53;0.10;;;0.10;;
67363;SDS011;54250;45.572;38.086;2023-01-13T02:50:23;0.13;;;0.13;;
67363;SDS011;54250;45.572;38.086;2023-01-13T02:52:56;1.65;;;0.50;;
67363;SDS011;54250;45.572;38.086;2023-01-13T02:55:29;0.35;;;0.35;;
67363;SDS011;54250;45.572;38.086;2023-01-13T02:58:02;2.38;;;1.17;;
67363;SDS011;54250;45.572;38.086;2023-01-13T03:00:31;5.78;;;1.10;;
67363;SDS011;54250;45.572;38.086;2023-01-13T03:02:59;5.63;;;0.52;;
67363;SDS011;54250;45.572;38.086;2023-01-13T03:05:25;0.00;;;0.00;;
67363;SDS011;54250;45.572;38.086;2023-01-13T03:07:56;0.43;;;0.30;;
67363;SDS011;54250;45.572;38.086;2023-01-13T03:21:43;0.35;;;0.35;;
67363;SDS011;54250;45.572;38.086;2023-01-13T03:32:09;0.73;;;0.73;;
67363;SDS011;54250;45.572;38.086;2023-01-13T03:34:50;1.75;;;1.65;;
67363;SDS011;54250;45.572;38.086;2023-01-13T03:37:24;6.68;;;1.65;;
67363;SDS011;54250;45.572;38.086;2023-01-13T03:39:59;0.52;;;0.20;;
67363;SDS011;54250;45.572;38.086;2023-01-13T03:42:29;0.08;;;0.08;;
67363;SDS011;54250;45.572;38.086;2023-01-13T03:45:00;0.00;;;0.00;;
67363;SDS011;54250;45.572;38.086;2023-01-13T03:50:11;0.25;;;0.25;;
67363;SDS011;54250;45.572;38.086;2023-01-13T03:52:40;0.57;;;0.57;;
67363;SDS011;54250;45.572;38.086;2023-01-13T03:55:15;0.20;;;0.20;;
67363;SDS011;54250;45.572;38.086;2023-01-13T03:57:51;0.45;;;0.45;;
67363;SDS011;54250;45.572;38.086;2023-01-13T04:03:35;0.80;;;0.57;;
67363;SDS011;54250;45.572;38.086;2023-01-13T04:06:11;8.07;;;1.95;;
67363;SDS011;54250;45.572;38.086;2023-01-13T04:08:44;0.57;;;0.57;;
67363;SDS011;54250;45.572;38.086;2023-01-13T04:13:56;0.17;;;0.17;;
67363;SDS011;54250;45.572;38.086;2023-01-13T04:16:24;0.40;;;0.30;;
67363;SDS011;54250;45.572;38.086;2023-01-13T04:18:50;0.32;;;0.32;;
67363;SDS011;54250;45.572;38.086;2023-01-13T04:21:16;0.05;;;0.05;;
67363;SDS011;54250;45.572;38.086;2023-01-13T04:23:42;1.80;;;0.35;;
67363;SDS011;54250;45.572;38.086;2023-01-13T04:26:08;0.00;;;0.00;;
67363;SDS011;54250;45.572;38.086;2023-01-13T04:28:34;4.78;;;1.02;;
67363;SDS011;54250;45.572;38.086;2023-01-13T04:31:00;0.10;;;0.10;;
67363;SDS011;54250;45.572;38.086;2023-01-13T04:33:26;0.17;;;0.15;;
67363;SDS011;54250;45.572;38.086;2023-01-13T04:35:52;0.00;;;0.00;;
67363;SDS011;54250;45.572;38.086;2023-01-13T04:38:19;0.77;;;0.77;;
67363;SDS011;54250;45.572;38.086;2023-01-13T04:40:46;0.20;;;0.20;;
67363;SDS011;54250;45.572;38.086;2023-01-13T04:43:12;0.45;;;0.38;;
67363;SDS011;54250;45.572;38.086;2023-01-13T04:45:40;0.30;;;0.30;;
67363;SDS011;54250;45.572;38.086;2023-01-13T04:48:07;0.45;;;0.45;;
67363;SDS011;54250;45.572;38.086;2023-01-13T04:50:33;0.50;;;0.47;;
67363;SDS011;54250;45.572;38.086;2023-01-13T04:52:59;1.02;;;0.65;;
67363;SDS011;54250;45.572;38.086;2023-01-13T04:55:25;0.30;;;0.30;;
67363;SDS011;54250;45.572;38.086;2023-01-13T04:57:52;0.65;;;0.45;;
67363;SDS011;54250;45.572;38.086;2023-01-13T05:00:19;0.08;;;0.08;;
67363;SDS011;54250;45.572;38.086;2023-01-13T05:02:50;3.25;;;0.28;;
67363;SDS011;54250;45.572;38.086;2023-01-13T05:05:16;0.52;;;0.40;;
67363;SDS011;54250;45.572;38.086;2023-01-13T05:07:43;0.17;;;0.17;;
67363;SDS011;54250;45.572;38.086;2023-01-13T05:10:09;0.45;;;0.38;;
67363;SDS011;54250;45.572;38.086;2023-01-13T05:12:35;0.10;;;0.10;;
67363;SDS011;54250;45.572;38.086;2023-01-13T05:15:20;0.15;;;0.08;;
67363;SDS011;54250;45.572;38.086;2023-01-13T05:18:09;0.25;;;0.20;;
67363;SDS011;54250;45.572;38.086;2023-01-13T05:20:36;0.80;;;0.38;;
67363;SDS011;54250;45.572;38.086;2023-01-13T05:23:02;0.75;;;0.70;;
67363;SDS011;54250;45.572;38.086;2023-01-13T05:25:47;0.35;;;0.35;;
67363;SDS011;54250;45.572;38.086;2023-01-13T05:28:13;0.00;;;0.00;;
67363;SDS011;54250;45.572;38.086;2023-01-13T05:30:41;0.47;;;0.45;;
67363;SDS011;54250;45.572;38.086;2023-01-13T05:33:11;0.20;;;0.20;;
67363;SDS011;54250;45.572;38.086;2023-01-13T05:35:39;6.22;;;1.13;;
67363;SDS011;54250;45.572;38.086;2023-01-13T05:38:07;0.40;;;0.40;;
67363;SDS011;54250;45.572;38.086;2023-01-13T05:40:33;0.10;;;0.10;;
67363;SDS011;54250;45.572;38.086;2023-01-13T05:43:20;1.15;;;1.05;;
67363;SDS011;54250;45.572;38.086;2023-01-13T05:45:51;6.85;;;0.50;;
67363;SDS011;54250;45.572;38.086;2023-01-13T05:48:32;0.15;;;0.15;;
67363;SDS011;54250;45.572;38.086;2023-01-13T05:51:00;0.00;;;0.00;;
67363;SDS011;54250;45.572;38.086;2023-01-13T05:53:27;0.57;;;0.30;;
67363;SDS011;54250;45.572;38.086;2023-01-13T05:55:53;0.10;;;0.10;;
67363;SDS011;54250;45.572;38.086;2023-01-13T05:58:21;1.23;;;0.35;;
67363;SDS011;54250;45.572;38.086;2023-01-13T06:00:48;0.40;;;0.40;;
67363;SDS011;54250;45.572;38.086;2023-01-13T06:03:15;1.80;;;1.00;;
67363;SDS011;54250;45.572;38.086;2023-01-13T06:05:44;0.60;;;0.60;;
67363;SDS011;54250;45.572;38.086;2023-01-13T06:08:11;0.95;;;0.38;;
67363;SDS011;54250;45.572;38.086;2023-01-13T06:10:37;1.00;;;0.90;;
67363;SDS011;54250;45.572;38.086;2023-01-13T06:13:03;0.22;;;0.22;;
67363;SDS011;54250;45.572;38.086;2023-01-13T06:15:29;0.20;;;0.20;;
67363;SDS011;54250;45.572;38.086;2023-01-13T06:17:56;0.57;;;0.20;;
67363;SDS011;54250;45.572;38.086;2023-01-13T06:20:22;0.30;;;0.30;;
67363;SDS011;54250;45.572;38.086;2023-01-13T06:22:49;4.35;;;0.88;;
67363;SDS011;54250;45.572;38.086;2023-01-13T06:25:21;4.30;;;0.82;;
67363;SDS011;54250;45.572;38.086;2023-01-13T06:28:06;0.60;;;0.50;;
67363;SDS011;54250;45.572;38.086;2023-01-13T06:30:37;1.08;;;0.95;;
67363;SDS011;54250;45.572;38.086;2023-01-13T06:33:08;3.92;;;0.88;;
67363;SDS011;54250;45.572;38.086;2023-01-13T06:35:38;0.73;;;0.70;;
67363;SDS011;54250;45.572;38.086;2023-01-13T06:38:07;2.53;;;1.30;;
67363;SDS011;54250;45.572;38.086;2023-01-13T06:40:35;1.23;;;1.13;;
67363;SDS011;54250;45.572;38.086;2023-01-13T06:43:01;2.33;;;1.67;;
67363;SDS011;54250;45.572;38.086;2023-01-13T06:45:53;1.65;;;0.73;;
67363;SDS011;54250;45.572;38.086;2023-01-13T06:48:27;5.85;;;1.85;;
67363;SDS011;54250;45.572;38.086;2023-01-13T06:50:57;2.15;;;1.02;;
67363;SDS011;54250;45.572;38.086;2023-01-13T06:53:23;0.55;;;0.52;;
67363;SDS011;54250;45.572;38.086;2023-01-13T06:55:49;1.20;;;1.10;;
67363;SDS011;54250;45.572;38.086;2023-01-13T06:58:15;3.30;;;1.35;;
67363;SDS011;54250;45.572;38.086;2023-01-13T07:00:41;2.13;;;0.82;;
67363;SDS011;54250;45.572;38.086;2023-01-13T07:03:09;2.35;;;1.25;;
67363;SDS011;54250;45.572;38.086;2023-01-13T07:05:40;0.75;;;0.73;;
67363;SDS011;54250;45.572;38.086;2023-01-13T07:08:07;0.93;;;0.77;;
67363;SDS011;54250;45.572;38.086;2023-01-13T07:10:34;9.70;;;1.42;;
67363;SDS011;54250;45.572;38.086;2023-01-13T07:13:01;1.40;;;1.20;;
67363;SDS011;54250;45.572;38.086;2023-01-13T07:16:19;1.33;;;0.88;;
67363;SDS011;54250;45.572;38.086;2023-01-13T07:18:38;1.77;;;1.17;;
67363;SDS011;54250;45.572;38.086;2023-01-13T07:21:05;7.93;;;1.00;;
67363;SDS011;54250;45.572;38.086;2023-01-13T07:23:34;2.67;;;1.50;;
67363;SDS011;54250;45.572;38.086;2023-01-13T07:26:01;4.95;;;1.73;;
67363;SDS011;54250;45.572;38.086;2023-01-13T07:28:28;16.38;;;1.65;;
67363;SDS011;54250;45.572;38.086;2023-01-13T07:30:55;2.42;;;1.52;;
67363;SDS011;54250;45.572;38.086;2023-01-13T07:33:21;1.95;;;1.15;;
67363;SDS011;54250;45.572;38.086;2023-01-13T07:35:53;8.65;;;1.63;;
67363;SDS011;54250;45.572;38.086;2023-01-13T07:38:21;5.43;;;2.10;;
67363;SDS011;54250;45.572;38.086;2023-01-13T07:40:47;1.95;;;1.40;;
67363;SDS011;54250;45.572;38.086;2023-01-13T07:43:13;4.15;;;1.33;;
67363;SDS011;54250;45.572;38.086;2023-01-13T07:45:57;0.88;;;0.75;;
67363;SDS011;54250;45.572;38.086;2023-01-13T07:48:25;7.13;;;2.50;;
67363;SDS011;54250;45.572;38.086;2023-01-13T07:50:52;3.40;;;1.85;;
67363;SDS011;54250;45.572;38.086;2023-01-13T07:53:18;1.63;;;1.20;;
67363;SDS011;54250;45.572;38.086;2023-01-13T07:55:45;2.28;;;1.67;;
67363;SDS011;54250;45.572;38.086;2023-01-13T07:58:11;9.82;;;1.80;;
67363;SDS011;54250;45.572;38.086;2023-01-13T08:00:37;3.20;;;1.58;;
67363;SDS011;54250;45.572;38.086;2023-01-13T08:03:03;4.00;;;2.25;;
67363;SDS011;54250;45.572;38.086;2023-01-13T08:05:30;3.55;;;1.83;;
67363;SDS011;54250;45.572;38.086;2023-01-13T08:07:56;1.48;;;1.20;;
67363;SDS011;54250;45.572;38.086;2023-01-13T08:10:22;3.42;;;1.83;;
67363;SDS011;54250;45.572;38.086;2023-01-13T08:12:48;4.88;;;2.60;;
67363;SDS011;54250;45.572;38.086;2023-01-13T08:15:33;4.18;;;2.50;;
67363;SDS011;54250;45.572;38.086;2023-01-13T08:17:59;2.17;;;1.50;;
67363;SDS011;54250;45.572;38.086;2023-01-13T08:20:25;7.25;;;2.42;;
67363;SDS011;54250;45.572;38.086;2023-01-13T08:22:55;2.97;;;1.65;;
67363;SDS011;54250;45.572;38.086;2023-01-13T08:25:22;9.23;;;2.10;;
67363;SDS011;54250;45.572;38.086;2023-01-13T08:27:48;3.42;;;2.10;;
67363;SDS011;54250;45.572;38.086;2023-01-13T08:30:15;5.32;;;1.73;;
67363;SDS011;54250;45.572;38.086;2023-01-13T08:32:44;2.60;;;1.95;;
67363;SDS011;54250;45.572;38.086;2023-01-13T08:35:10;9.35;;;2.90;;
67363;SDS011;54250;45.572;38.086;2023-01-13T08:37:37;6.13;;;1.90;;
67363;SDS011;54250;45.572;38.086;2023-01-13T08:40:04;5.70;;;3.13;;
67363;SDS011;54250;45.572;38.086;2023-01-13T08:42:30;4.68;;;2.03;;
67363;SDS011;54250;45.572;38.086;2023-01-13T08:44:57;4.28;;;1.67;;
67363;SDS011;54250;45.572;38.086;2023-01-13T08:47:23;2.10;;;1.52;;
67363;SDS011;54250;45.572;38.086;2023-01-13T08:49:51;5.07;;;2.10;;
67363;SDS011;54250;45.572;38.086;2023-01-13T08:52:17;8.93;;;2.13;;
67363;SDS011;54250;45.572;38.086;2023-01-13T08:54:43;12.43;;;2.83;;
67363;SDS011;54250;45.572;38.086;2023-01-13T08:57:09;2.42;;;1.83;;
67363;SDS011;54250;45.572;38.086;2023-01-13T08:59:35;4.38;;;2.60;;
67363;SDS011;54250;45.572;38.086;2023-01-13T09:02:01;2.17;;;1.77;;
67363;SDS011;54250;45.572;38.086;2023-01-13T09:04:29;8.93;;;3.10;;
67363;SDS011;54250;45.572;38.086;2023-01-13T09:06:55;9.65;;;2.03;;
67363;SDS011;54250;45.572;38.086;2023-01-13T09:09:21;2.38;;;1.75;;
67363;SDS011;54250;45.572;38.086;2023-01-13T09:11:49;4.40;;;2.05;;
67363;SDS011;54250;45.572;38.086;2023-01-13T09:14:34;8.07;;;3.08;;
67363;SDS011;54250;45.572;38.086;2023-01-13T09:17:02;14.38;;;4.90;;
67363;SDS011;54250;45.572;38.086;2023-01-13T09:19:28;6.75;;;2.20;;
67363;SDS011;54250;45.572;38.086;2023-01-13T09:21:55;14.23;;;2.78;;
67363;SDS011;54250;45.572;38.086;2023-01-13T09:24:22;5.30;;;2.92;;
67363;SDS011;54250;45.572;38.086;2023-01-13T09:26:48;7.63;;;1.98;;
67363;SDS011;54250;45.572;38.086;2023-01-13T09:29:15;8.60;;;2.00;;
67363;SDS011;54250;45.572;38.086;2023-01-13T09:31:41;3.83;;;2.55;;
67363;SDS011;54250;45.572;38.086;2023-01-13T09:34:16;10.98;;;2.70;;
67363;SDS011;54250;45.572;38.086;2023-01-13T09:37:02;7.23;;;3.03;;
67363;SDS011;54250;45.572;38.086;2023-01-13T09:39:29;11.00;;;2.17;;
67363;SDS011;54250;45.572;38.086;2023-01-13T09:41:56;13.18;;;2.65;;
67363;SDS011;54250;45.572;38.086;2023-01-13T09:44:52;5.40;;;2.58;;
67363;SDS011;54250;45.572;38.086;2023-01-13T09:47:29;2.22;;;1.63;;
67363;SDS011;54250;45.572;38.086;2023-01-13T09:52:38;4.07;;;2.03;;
67363;SDS011;54250;45.572;38.086;2023-01-13T09:55:14;4.07;;;2.17;;
67363;SDS011;54250;45.572;38.086;2023-01-13T09:57:41;5.00;;;2.83;;
67363;SDS011;54250;45.572;38.086;2023-01-13T10:08:16;11.27;;;3.05;;
67363;SDS011;54250;45.572;38.086;2023-01-13T10:10:48;5.60;;;2.42;;
67363;SDS011;54250;45.572;38.086;2023-01-13T10:13:28;4.60;;;2.67;;
67363;SDS011;54250;45.572;38.086;2023-01-13T10:18:52;1.92;;;1.70;;
67363;SDS011;54250;45.572;38.086;2023-01-13T10:21:48;4.28;;;2.83;;
67363;SDS011;54250;45.572;38.086;2023-01-13T10:27:11;3.90;;;2.40;;
67363;SDS011;54250;45.572;38.086;2023-01-13T10:32:57;2.42;;;1.27;;
67363;SDS011;54250;45.572;38.086;2023-01-13T10:38:35;2.28;;;1.42;;
67363;SDS011;54250;45.572;38.086;2023-01-13T10:43:44;10.23;;;2.97;;
67363;SDS011;54250;45.572;38.086;2023-01-13T10:46:15;2.15;;;1.60;;
67363;SDS011;54250;45.572;38.086;2023-01-13T10:49:05;3.97;;;2.85;;
67363;SDS011;54250;45.572;38.086;2023-01-13T10:51:45;10.95;;;2.50;;
67363;SDS011;54250;45.572;38.086;2023-01-13T10:56:38;7.60;;;2.65;;
67363;SDS011;54250;45.572;38.086;2023-01-13T11:01:37;3.47;;;2.33;;
67363;SDS011;54250;45.572;38.086;2023-01-13T11:04:32;13.00;;;3.08;;
67363;SDS011;54250;45.572;38.086;2023-01-13T11:07:02;4.22;;;1.70;;
67363;SDS011;54250;45.572;38.086;2023-01-13T11:09:30;4.82;;;2.33;;
67363;SDS011;54250;45.572;38.086;2023-01-13T11:11:57;4.57;;;2.33;;
67363;SDS011;54250;45.572;38.086;2023-01-13T11:14:26;6.10;;;3.20;;
67363;SDS011;54250;45.572;38.086;2023-01-13T11:19:59;7.50;;;2.33;;
67363;SDS011;54250;45.572;38.086;2023-01-13T11:22:31;1.73;;;1.63;;
67363;SDS011;54250;45.572;38.086;2023-01-13T11:25:02;5.03;;;2.30;;
67363;SDS011;54250;45.572;38.086;2023-01-13T11:27:51;6.32;;;2.20;;
67363;SDS011;54250;45.572;38.086;2023-01-13T11:33:26;1.30;;;1.02;;
67363;SDS011;54250;45.572;38.086;2023-01-13T11:36:02;2.45;;;1.33;;
67363;SDS011;54250;45.572;38.086;2023-01-13T11:46:34;1.48;;;1.05;;
67363;SDS011;54250;45.572;38.086;2023-01-13T11:49:02;9.70;;;2.80;;
67363;SDS011;54250;45.572;38.086;2023-01-13T11:51:33;3.38;;;1.55;;
67363;SDS011;54250;45.572;38.086;2023-01-13T11:57:05;3.85;;;1.70;;
67363;SDS011;54250;45.572;38.086;2023-01-13T12:08:16;1.73;;;1.35;;
67363;SDS011;54250;45.572;38.086;2023-01-13T12:11:09;1.60;;;1.38;;
67363;SDS011;54250;45.572;38.086;2023-01-13T12:16:31;1.30;;;0.82;;
67363;SDS011;54250;45.572;38.086;2023-01-13T12:22:06;3.35;;;1.80;;
67363;SDS011;54250;45.572;38.086;2023-01-13T12:35:58;7.38;;;1.75;;
67363;SDS011;54250;45.572;38.086;2023-01-13T12:41:43;3.08;;;1.40;;
67363;SDS011;54250;45.572;38.086;2023-01-13T12:44:34;10.00;;;1.42;;
67363;SDS011;54250;45.572;38.086;2023-01-13T12:47:00;13.88;;;3.13;;
67363;SDS011;54250;45.572;38.086;2023-01-13T12:49:27;2.17;;;1.58;;
67363;SDS011;54250;45.572;38.086;2023-01-13T12:56:59;1.98;;;1.20;;
67363;SDS011;54250;45.572;38.086;2023-01-13T13:04:45;2.08;;;1.27;;
67363;SDS011;54250;45.572;38.086;2023-01-13T13:07:16;2.70;;;1.77;;
67363;SDS011;54250;45.572;38.086;2023-01-13T13:15:30;2.88;;;1.30;;
67363;SDS011;54250;45.572;38.086;2023-01-13T13:26:17;7.40;;;2.65;;
67363;SDS011;54250;45.572;38.086;2023-01-13T13:34:47;7.20;;;3.97;;
67363;SDS011;54250;45.572;38.086;2023-01-13T13:40:23;3.42;;;2.17;;
67363;SDS011;54250;45.572;38.086;2023-01-13T13:43:10;6.03;;;1.73;;
67363;SDS011;54250;45.572;38.086;2023-01-13T13:45:56;3.08;;;2.10;;
67363;SDS011;54250;45.572;38.086;2023-01-13T13:48:50;5.88;;;3.05;;
67363;SDS011;54250;45.572;38.086;2023-01-13T13:51:29;10.73;;;3.58;;
67363;SDS011;54250;45.572;38.086;2023-01-13T13:54:02;4.45;;;2.20;;
67363;SDS011;54250;45.572;38.086;2023-01-13T13:56:29;5.43;;;3.30;;
67363;SDS011;54250;45.572;38.086;2023-01-13T13:59:00;11.82;;;5.18;;
67363;SDS011;54250;45.572;38.086;2023-01-13T14:01:28;9.20;;;5.82;;
67363;SDS011;54250;45.572;38.086;2023-01-13T14:04:03;7.82;;;3.17;;
67363;SDS011;54250;45.572;38.086;2023-01-13T14:06:50;4.75;;;3.17;;
67363;SDS011;54250;45.572;38.086;2023-01-13T14:09:18;8.07;;;4.00;;
67363;SDS011;54250;45.572;38.086;2023-01-13T14:11:59;20.65;;;2.25;;
67363;SDS011;54250;45.572;38.086;2023-01-13T14:14:26;6.35;;;2.00;;
67363;SDS011;54250;45.572;38.086;2023-01-13T14:16:53;15.32;;;3.78;;
67363;SDS011;54250;45.572;38.086;2023-01-13T14:19:30;10.85;;;3.20;;
67363;SDS011;54250;45.572;38.086;2023-01-13T14:22:00;13.38;;;2.78;;
67363;SDS011;54250;45.572;38.086;2023-01-13T14:24:28;3.80;;;2.13;;
67363;SDS011;54250;45.572;38.086;2023-01-13T14:27:13;2.65;;;2.08;;
67363;SDS011;54250;45.572;38.086;2023-01-13T14:29:41;3.38;;;2.50;;
67363;SDS011;54250;45.572;38.086;2023-01-13T14:32:07;10.05;;;3.25;;
67363;SDS011;54250;45.572;38.086;2023-01-13T14:34:37;13.05;;;3.85;;
67363;SDS011;54250;45.572;38.086;2023-01-13T14:37:18;3.95;;;1.50;;
67363;SDS011;54250;45.572;38.086;2023-01-13T14:42:14;3.85;;;1.95;;
67363;SDS011;54250;45.572;38.086;2023-01-13T14:44:49;1.52;;;1.05;;
67363;SDS011;54250;45.572;38.086;2023-01-13T14:47:28;15.75;;;2.72;;
67363;SDS011;54250;45.572;38.086;2023-01-13T14:50:03;24.15;;;2.45;;
67363;SDS011;54250;45.572;38.086;2023-01-13T14:57:35;6.50;;;3.72;;
67363;SDS011;54250;45.572;38.086;2023-01-13T15:08:03;9.10;;;3.03;;
67363;SDS011;54250;45.572;38.086;2023-01-13T15:10:37;36.00;;;8.98;;
67363;SDS011;54250;45.572;38.086;2023-01-13T15:15:54;14.20;;;2.85;;
67363;SDS011;54250;45.572;38.086;2023-01-13T15:18:22;16.23;;;4.70;;
67363;SDS011;54250;45.572;38.086;2023-01-13T15:20:48;20.02;;;8.57;;
67363;SDS011;54250;45.572;38.086;2023-01-13T15:23:17;10.02;;;4.28;;
67363;SDS011;54250;45.572;38.086;2023-01-13T15:25:44;38.55;;;6.53;;
67363;SDS011;54250;45.572;38.086;2023-01-13T15:28:16;15.35;;;7.47;;
67363;SDS011;54250;45.572;38.086;2023-01-13T15:30:51;16.45;;;6.97;;
67363;SDS011;54250;45.572;38.086;2023-01-13T15:33:22;41.08;;;11.00;;
67363;SDS011;54250;45.572;38.086;2023-01-13T15:35:49;29.15;;;11.50;;
67363;SDS011;54250;45.572;38.086;2023-01-13T15:38:18;21.10;;;10.35;;
67363;SDS011;54250;45.572;38.086;2023-01-13T15:40:46;21.23;;;6.40;;
67363;SDS011;54250;45.572;38.086;2023-01-13T15:43:16;6.70;;;4.72;;
67363;SDS011;54250;45.572;38.086;2023-01-13T15:46:12;21.88;;;6.10;;
67363;SDS011;54250;45.572;38.086;2023-01-13T15:51:50;9.20;;;5.15;;
67363;SDS011;54250;45.572;38.086;2023-01-13T15:54:16;7.35;;;4.22;;
67363;SDS011;54250;45.572;38.086;2023-01-13T15:56:44;10.20;;;5.78;;
67363;SDS011;54250;45.572;38.086;2023-01-13T15:59:17;4.07;;;2.83;;
67363;SDS011;54250;45.572;38.086;2023-01-13T16:01:46;10.95;;;5.63;;
67363;SDS011;54250;45.572;38.086;2023-01-13T16:04:12;11.05;;;6.47;;
67363;SDS011;54250;45.572;38.086;2023-01-13T16:06:38;10.05;;;4.82;;
67363;SDS011;54250;45.572;38.086;2023-01-13T16:09:04;4.50;;;3.38;;
67363;SDS011;54250;45.572;38.086;2023-01-13T16:11:31;16.85;;;5.75;;
67363;SDS011;54250;45.572;38.086;2023-01-13T16:13:57;5.70;;;3.35;;
67363;SDS011;54250;45.572;38.086;2023-01-13T16:16:25;5.85;;;3.90;;
67363;SDS011;54250;45.572;38.086;2023-01-13T16:18:52;17.70;;;3.97;;
67363;SDS011;54250;45.572;38.086;2023-01-13T16:21:19;8.07;;;3.85;;
67363;SDS011;54250;45.572;38.086;2023-01-13T16:23:46;4.20;;;3.55;;
67363;SDS011;54250;45.572;38.086;2023-01-13T16:28:47;14.18;;;5.45;;
67363;SDS011;54250;45.572;38.086;2023-01-13T16:31:35;5.55;;;2.78;;
67363;SDS011;54250;45.572;38.086;2023-01-13T16:34:00;7.93;;;3.17;;
67363;SDS011;54250;45.572;38.086;2023-01-13T16:36:29;5.38;;;3.83;;
67363;SDS011;54250;45.572;38.086;2023-01-13T16:38:58;11.43;;;3.85;;
67363;SDS011;54250;45.572;38.086;2023-01-13T16:41:24;4.82;;;2.47;;
67363;SDS011;54250;45.572;38.086;2023-01-13T16:43:51;3.47;;;2.67;;
67363;SDS011;54250;45.572;38.086;2023-01-13T16:46:19;7.57;;;3.17;;
67363;SDS011;54250;45.572;38.086;2023-01-13T16:48:47;6.18;;;2.92;;
67363;SDS011;54250;45.572;38.086;2023-01-13T16:51:14;3.15;;;2.35;;
67363;SDS011;54250;45.572;38.086;2023-01-13T16:53:40;2.53;;;2.15;;
67363;SDS011;54250;45.572;38.086;2023-01-13T16:56:29;3.60;;;2.42;;
67363;SDS011;54250;45.572;38.086;2023-01-13T16:58:58;4.85;;;2.83;;
67363;SDS011;54250;45.572;38.086;2023-01-13T17:01:31;8.82;;;3.35;;
67363;SDS011;54250;45.572;38.086;2023-01-13T17:03:59;7.20;;;2.08;;
67363;SDS011;54250;45.572;38.086;2023-01-13T17:09:03;2.58;;;2.35;;
67363;SDS011;54250;45.572;38.086;2023-01-13T17:11:33;10.82;;;4.82;;
67363;SDS011;54250;45.572;38.086;2023-01-13T17:13:59;7.93;;;2.55;;
67363;SDS011;54250;45.572;38.086;2023-01-13T17:16:25;14.27;;;2.15;;
67363;SDS011;54250;45.572;38.086;2023-01-13T17:18:52;11.20;;;3.05;;
67363;SDS011;54250;45.572;38.086;2023-01-13T17:21:19;5.13;;;2.90;;
67363;SDS011;54250;45.572;38.086;2023-01-13T17:23:45;5.03;;;2.53;;
67363;SDS011;54250;45.572;38.086;2023-01-13T17:28:54;2.40;;;2.03;;
67363;SDS011;54250;45.572;38.086;2023-01-13T17:31:20;5.97;;;2.63;;
67363;SDS011;54250;45.572;38.086;2023-01-13T17:33:46;10.48;;;1.45;;
67363;SDS011;54250;45.572;38.086;2023-01-13T17:36:12;2.08;;;1.70;;
67363;SDS011;54250;45.572;38.086;2023-01-13T17:38:39;18.58;;;5.07;;
67363;SDS011;54250;45.572;38.086;2023-01-13T17:41:05;10.88;;;3.15;;
67363;SDS011;54250;45.572;38.086;2023-01-13T17:43:31;0.80;;;0.80;;
67363;SDS011;54250;45.572;38.086;2023-01-13T17:45:58;4.50;;;1.17;;
67363;SDS011;54250;45.572;38.086;2023-01-13T17:48:25;4.32;;;3.45;;
67363;SDS011;54250;45.572;38.086;2023-01-13T17:50:51;0.88;;;0.88;;
67363;SDS011;54250;45.572;38.086;2023-01-13T17:53:18;2.85;;;1.90;;
67363;SDS011;54250;45.572;38.086;2023-01-13T17:55:48;2.10;;;1.63;;
67363;SDS011;54250;45.572;38.086;2023-01-13T17:58:19;16.20;;;2.83;;